WMKK

Kuala Lumpur International Airport

Kuala Lumpur, Malaysia
TAF AMD WMKK 212031Z 2120/2300 VRB02KT 9999 FEW030 TEMPO 2121/2201 VRB03KT 4000 TSRA FEW017CB SCT020 BECMG 2206/2208 18005KT FEW018
Issued Valid From Valid To
Jul-21 @ 20:31 UTC
(2 hours ago)
Jul-21 @ 20:00 UTC
(3 hours ago)
Jul-23 @ 00:00 UTC
(-1 days ago)
Jul-21 @ 20:00 to Jul-22 @ 06:00
TAF AMD WMKK 212031Z 2120/2300 VRB02KT 9999 FEW030
Wind Visibility Clouds
Variable at 2 knots 10,000+ meters
  • Few at 3,000' AGL
Temporary Jul-21 @ 21:00 to Jul-22 @ 01:00
TEMPO 2121/2201 VRB03KT 4000 TSRA FEW017CB SCT020
Wind Visibility Clouds Conditions
Variable at 3 knots 4,007 meters
  • Few at 1,700' AGL
  • Scattered at 2,000' AGL
  • Thunderstorm
  • Rain
Becoming Jul-22 @ 06:00 to Jul-23 @ 00:00
BECMG 2206/2208 18005KT FEW018
Wind Visibility Clouds
180° at 5 knots 10,000+ meters
  • Few at 1,800' AGL
TAF AMD WMKK 212031Z 2120/2300 VRB02KT 9999 FEW030 TEMPO 2121/2201 VRB03KT 4000 TSRA FEW017CB SCT020 BECMG 2206/2208 18005KT FEW018
Issued Jul-21 @ 20:31 UTC
(2 hours ago)
Valid From Jul-21 @ 20:00 UTC
(3 hours ago)
Valid To Jul-23 @ 00:00 UTC
(-1 days ago)
Jul-21 @ 20:00 - Jul-22 @ 06:00
Wind Visibility
Variable at 2 knots 10,000+ meters
Clouds
  • Few at 3,000' AGL
Temporary Jul-21 @ 21:00 - Jul-22 @ 01:00
Wind Visibility
Variable at 3 knots 4,007 meters
Clouds
  • Few at 1,700' AGL
  • Scattered at 2,000' AGL
Conditions
  • Thunderstorm
  • Rain
Becoming Jul-22 @ 06:00 - Jul-23 @ 00:00
Wind Visibility
180° at 5 knots 10,000+ meters
Clouds
  • Few at 1,800' AGL